createdAt,value
2023-04-18T00:00:24.493Z,97949.41
2023-04-18T00:01:27.617Z,97952.63
2023-04-18T00:02:30.732Z,97946.31
2023-04-18T00:03:33.896Z,97945.84
2023-04-18T00:04:36.975Z,97941.44
2023-04-18T00:05:40.414Z,97942.09
2023-04-18T00:06:43.693Z,97948.16
2023-04-18T00:07:47.234Z,97941.66
2023-04-18T00:08:49.943Z,97943.22
2023-04-18T00:09:55.427Z,97942.09
2023-04-18T00:10:58.187Z,97942.75
2023-04-18T00:12:04.310Z,97947.38
2023-04-18T00:13:08.572Z,97942.63
2023-04-18T00:14:12.174Z,97951.56
2023-04-18T00:15:15.117Z,97939.28
2023-04-18T00:16:17.803Z,97945.38
2023-04-18T00:17:21.334Z,97935.00
2023-04-18T00:18:26.751Z,97941.91
2023-04-18T00:19:29.524Z,97940.00
2023-04-18T00:20:33.076Z,97936.13
2023-04-18T00:21:37.414Z,97942.91
2023-04-18T00:22:44.236Z,97937.97
2023-04-18T00:23:46.885Z,97935.25
2023-04-18T00:24:50.569Z,97944.47
2023-04-18T00:25:53.221Z,97945.16
2023-04-18T00:26:55.860Z,97943.03
2023-04-18T00:27:58.727Z,97945.81
2023-04-18T00:29:03.324Z,97947.34
2023-04-18T00:30:06.973Z,97941.53
2023-04-18T00:31:09.658Z,97943.56
2023-04-18T00:32:12.244Z,97945.72
2023-04-18T00:33:14.868Z,97951.53
2023-04-18T00:34:17.621Z,97940.31
2023-04-18T00:35:20.346Z,97949.22
2023-04-18T00:36:23.389Z,97949.22
2023-04-18T00:37:26.306Z,97953.09
2023-04-18T00:38:28.988Z,97944.28
2023-04-18T00:39:31.841Z,97936.44
2023-04-18T00:40:34.856Z,97942.44
2023-04-18T00:41:37.432Z,97943.78
2023-04-18T00:42:40.194Z,97942.63
2023-04-18T00:43:42.760Z,97946.50
2023-04-18T00:44:45.387Z,97942.25
2023-04-18T00:45:48.146Z,97940.09
2023-04-18T00:46:51.428Z,97941.25
2023-04-18T00:47:56.408Z,97943.19
2023-04-18T00:48:59.129Z,97941.34
2023-04-18T00:50:02.382Z,97943.75
2023-04-18T00:51:07.794Z,97949.00
2023-04-18T00:52:14.451Z,97949.28
2023-04-18T00:53:20.397Z,97949.97
2023-04-18T00:54:24.881Z,97942.25
2023-04-18T00:55:27.618Z,97943.97
2023-04-18T00:56:30.770Z,97936.72
2023-04-18T00:57:34.645Z,97943.97
2023-04-18T00:58:37.441Z,97938.13
2023-04-18T00:59:40.761Z,97948.78
2023-04-18T01:00:43.956Z,97948.34
2023-04-18T01:01:47.229Z,97945.06
2023-04-18T01:02:53.467Z,97945.06
2023-04-18T01:03:56.449Z,97948.63
2023-04-18T01:04:59.645Z,97949.22
2023-04-18T01:06:02.384Z,97948.03
2023-04-18T01:07:06.221Z,97941.41
2023-04-18T01:08:08.987Z,97944.63
2023-04-18T01:09:14.159Z,97946.97
2023-04-18T01:10:17.465Z,97943.41
2023-04-18T01:11:20.588Z,97950.59
2023-04-18T01:12:23.290Z,97948.00
2023-04-18T01:13:26.115Z,97942.75
2023-04-18T01:14:28.709Z,97947.91
2023-04-18T01:15:31.381Z,97947.25
2023-04-18T01:16:34.414Z,97945.22
2023-04-18T01:17:38.643Z,97944.75
2023-04-18T01:18:41.308Z,97946.59
2023-04-18T01:19:44.568Z,97942.59
2023-04-18T01:20:50.891Z,97947.84
2023-04-18T01:21:54.459Z,97945.06
2023-04-18T01:22:58.197Z,97947.84
2023-04-18T01:24:08.973Z,97946.31
2023-04-18T01:25:11.951Z,97946.09
2023-04-18T01:26:14.674Z,97950.56
2023-04-18T01:27:17.913Z,97956.78
2023-04-18T01:28:23.019Z,97948.25
2023-04-18T01:29:26.515Z,97940.09
2023-04-18T01:30:29.246Z,97948.72
2023-04-18T01:31:38.953Z,97952.59
2023-04-18T01:32:42.036Z,97950.69
2023-04-18T01:33:44.777Z,97957.16
2023-04-18T01:34:47.846Z,97952.91
2023-04-18T01:35:50.667Z,97953.69
2023-04-18T01:36:53.193Z,97950.56
2023-04-18T01:37:56.221Z,97955.81
2023-04-18T01:38:59.804Z,97951.06
2023-04-18T01:40:02.662Z,97949.53
2023-04-18T01:41:05.432Z,97949.03
2023-04-18T01:42:08.249Z,97947.56
2023-04-18T01:43:10.935Z,97953.84
2023-04-18T01:44:14.056Z,97944.63
2023-04-18T01:45:17.784Z,97950.66
2023-04-18T01:46:20.750Z,97952.00
2023-04-18T01:47:23.843Z,97947.84
2023-04-18T01:48:26.697Z,97953.69
2023-04-18T01:49:29.375Z,97950.47
2023-04-18T01:50:32.135Z,97955.59
2023-04-18T01:51:35.447Z,97948.69
2023-04-18T01:52:38.401Z,97945.00
2023-04-18T01:53:41.101Z,97952.06
2023-04-18T01:54:43.788Z,97952.97
2023-04-18T01:55:49.380Z,97946.66
2023-04-18T01:56:52.128Z,97952.56
2023-04-18T01:57:55.169Z,97945.47
2023-04-18T01:58:58.048Z,97947.22
2023-04-18T02:00:01.908Z,97944.59
2023-04-18T02:01:05.147Z,97945.19
2023-04-18T02:02:08.299Z,97946.06
2023-04-18T02:03:11.196Z,97948.41
2023-04-18T02:04:14.273Z,97946.56
2023-04-18T02:05:17.189Z,97947.31
2023-04-18T02:06:19.810Z,97944.88
2023-04-18T02:07:22.676Z,97956.25
2023-04-18T02:08:25.673Z,97956.63
2023-04-18T02:09:28.613Z,97949.66
2023-04-18T02:10:31.730Z,97952.91
2023-04-18T02:11:34.712Z,97959.06
2023-04-18T02:12:37.497Z,97954.00
2023-04-18T02:13:40.431Z,97950.13
2023-04-18T02:14:43.054Z,97952.84
2023-04-18T02:15:46.188Z,97951.31
2023-04-18T02:16:49.381Z,97954.75
2023-04-18T02:17:52.229Z,97956.44
2023-04-18T02:18:54.913Z,97950.53
2023-04-18T02:19:57.974Z,97950.37
2023-04-18T02:21:01.184Z,97960.06
2023-04-18T02:22:03.931Z,97952.50
2023-04-18T02:23:07.219Z,97953.09
2023-04-18T02:24:09.830Z,97953.09
2023-04-18T02:25:12.510Z,97950.53
2023-04-18T02:26:15.425Z,97960.69
2023-04-18T02:27:18.764Z,97953.16
2023-04-18T02:28:21.411Z,97954.41
2023-04-18T02:29:24.745Z,97956.53
2023-04-18T02:30:27.493Z,97956.53
2023-04-18T02:31:30.668Z,97953.16
2023-04-18T02:32:33.458Z,97955.28
2023-04-18T02:33:36.269Z,97949.25
2023-04-18T02:34:39.576Z,97959.13
2023-04-18T02:35:42.304Z,97952.47
2023-04-18T02:36:52.292Z,97953.81
2023-04-18T02:37:55.104Z,97951.47
2023-04-18T02:38:57.932Z,97952.22
2023-04-18T02:40:00.645Z,97950.06
2023-04-18T02:41:03.300Z,97957.81
2023-04-18T02:42:06.068Z,97960.13
2023-04-18T02:43:08.714Z,97959.34
2023-04-18T02:44:11.544Z,97959.81
2023-04-18T02:45:14.412Z,97956.63
2023-04-18T02:46:17.815Z,97957.97
2023-04-18T02:47:20.773Z,97967.19
2023-04-18T02:48:24.168Z,97955.19
2023-04-18T02:49:27.093Z,97960.13
2023-04-18T02:50:30.200Z,97957.09
2023-04-18T02:51:32.962Z,97956.53
2023-04-18T02:52:35.797Z,97959.75
2023-04-18T02:53:38.409Z,97965.47
2023-04-18T02:54:41.130Z,97962.97
2023-04-18T02:55:43.855Z,97959.16
2023-04-18T02:56:46.609Z,97964.28
2023-04-18T02:57:49.400Z,97959.41
2023-04-18T02:58:52.424Z,97955.44
2023-04-18T02:59:55.079Z,97960.19
2023-04-18T03:00:58.357Z,97960.31
2023-04-18T03:02:02.059Z,97969.44
2023-04-18T03:03:05.734Z,97970.19
2023-04-18T03:04:08.832Z,97961.31
2023-04-18T03:05:11.507Z,97962.19
2023-04-18T03:06:14.176Z,97964.88
2023-04-18T03:07:16.955Z,97961.28
2023-04-18T03:08:19.636Z,97964.22
2023-04-18T03:09:22.498Z,97959.28
2023-04-18T03:10:25.154Z,97970.47
2023-04-18T03:11:28.027Z,97970.47
2023-04-18T03:12:30.835Z,97968.22
2023-04-18T03:13:34.996Z,97971.00
2023-04-18T03:14:38.262Z,97972.50
2023-04-18T03:15:41.080Z,97968.78
2023-04-18T03:16:44.288Z,97974.28
2023-04-18T03:17:47.027Z,97975.38
2023-04-18T03:18:49.748Z,97975.78
2023-04-18T03:19:52.409Z,97977.72
2023-04-18T03:20:55.165Z,97981.66
2023-04-18T03:21:57.823Z,97975.88
2023-04-18T03:23:01.010Z,97974.88
2023-04-18T03:24:03.806Z,97974.34
2023-04-18T03:25:07.321Z,97975.72
2023-04-18T03:26:10.208Z,97975.25
2023-04-18T03:27:13.441Z,97974.34
2023-04-18T03:28:16.129Z,97974.94
2023-04-18T03:29:18.882Z,97980.56
2023-04-18T03:30:21.712Z,97986.97
2023-04-18T03:31:24.661Z,97978.63
2023-04-18T03:32:27.768Z,97971.38
2023-04-18T03:33:30.562Z,97974.84
2023-04-18T03:34:33.291Z,97976.88
2023-04-18T03:35:35.966Z,97970.31
2023-04-18T03:36:39.325Z,97979.00
2023-04-18T03:37:42.111Z,97974.00
2023-04-18T03:38:45.354Z,97980.09
2023-04-18T03:39:48.077Z,97974.94
2023-04-18T03:40:50.794Z,97981.25
2023-04-18T03:41:53.849Z,97976.19
2023-04-18T03:42:56.584Z,97984.47
2023-04-18T03:43:59.239Z,97984.06
2023-04-18T03:45:02.114Z,97972.91
2023-04-18T03:46:04.821Z,97978.34
2023-04-18T03:47:07.520Z,97985.91
2023-04-18T03:48:10.394Z,97987.06
2023-04-18T03:49:13.127Z,97987.75
2023-04-18T03:50:15.933Z,97978.94
2023-04-18T03:51:18.611Z,97976.03
2023-04-18T03:52:21.276Z,97987.44
2023-04-18T03:53:24.172Z,97988.34
2023-04-18T03:54:26.859Z,97979.22
2023-04-18T03:55:29.546Z,97988.25
2023-04-18T03:56:32.426Z,97983.78
2023-04-18T03:57:35.236Z,97985.44
2023-04-18T03:58:38.129Z,97981.25
2023-04-18T03:59:41.243Z,97985.44
2023-04-18T04:00:43.928Z,97989.00
2023-04-18T04:01:46.591Z,97982.44
2023-04-18T04:02:49.569Z,97983.59
2023-04-18T04:03:52.370Z,97981.37
2023-04-18T04:04:55.223Z,97990.06
2023-04-18T04:05:57.958Z,97988.72
2023-04-18T04:07:01.108Z,97982.72
2023-04-18T04:08:03.936Z,97984.06
2023-04-18T04:09:06.831Z,97991.16
2023-04-18T04:10:09.866Z,97985.03
2023-04-18T04:11:12.721Z,97999.50
2023-04-18T04:12:15.442Z,97992.00
2023-04-18T04:13:18.070Z,97989.50
2023-04-18T04:14:21.672Z,97990.38
2023-04-18T04:15:24.264Z,97989.69
2023-04-18T04:16:28.297Z,97993.94
2023-04-18T04:17:31.066Z,97993.16
2023-04-18T04:18:33.922Z,98000.84
2023-04-18T04:19:36.525Z,97994.03
2023-04-18T04:20:39.106Z,97992.91
2023-04-18T04:21:41.737Z,97999.56
2023-04-18T04:22:44.385Z,97994.63
2023-04-18T04:23:46.917Z,97988.94
2023-04-18T04:24:49.514Z,97993.94
2023-04-18T04:25:53.228Z,98002.59
2023-04-18T04:26:56.503Z,98002.84
2023-04-18T04:28:01.774Z,97992.78
2023-04-18T04:29:05.306Z,97995.59
2023-04-18T04:30:09.555Z,97986.22
2023-04-18T04:31:13.668Z,97995.69
2023-04-18T04:32:17.102Z,97996.44
2023-04-18T04:33:20.956Z,97986.97
2023-04-18T04:34:23.626Z,97999.38
2023-04-18T04:35:26.965Z,97997.06
2023-04-18T04:36:29.750Z,97994.06
2023-04-18T04:37:33.676Z,97997.25
2023-04-18T04:38:38.635Z,97997.72
2023-04-18T04:39:41.562Z,97997.81
2023-04-18T04:40:44.285Z,98002.66
2023-04-18T04:41:47.476Z,97998.50
2023-04-18T04:42:54.166Z,98006.47
2023-04-18T04:43:57.050Z,98000.84
2023-04-18T04:44:59.697Z,98004.31
2023-04-18T04:46:07.792Z,98005.28
2023-04-18T04:47:10.693Z,98005.84
2023-04-18T04:48:13.491Z,98002.19
2023-04-18T04:49:16.233Z,98008.19
2023-04-18T04:50:19.297Z,98005.09
2023-04-18T04:51:22.148Z,98005.28
2023-04-18T04:52:25.566Z,98005.97
2023-04-18T04:53:32.624Z,98009.56
2023-04-18T04:54:35.567Z,98010.44
2023-04-18T04:55:39.002Z,98016.63
2023-04-18T04:56:41.631Z,98011.31
2023-04-18T04:57:45.133Z,98006.34
2023-04-18T04:58:47.857Z,98012.66
2023-04-18T04:59:50.791Z,98013.81
2023-04-18T05:00:53.981Z,98013.44
2023-04-18T05:01:59.737Z,98008.38
2023-04-18T05:03:02.678Z,98018.47
2023-04-18T05:04:06.013Z,98016.44
2023-04-18T05:05:09.075Z,98010.91
2023-04-18T05:06:11.716Z,98008.38
2023-04-18T05:07:14.863Z,98018.84
2023-04-18T05:08:17.585Z,98018.94
2023-04-18T05:09:20.958Z,98017.59
2023-04-18T05:10:24.140Z,98016.81
2023-04-18T05:11:27.213Z,98010.50
2023-04-18T05:12:30.070Z,98013.03
2023-04-18T05:13:32.905Z,98016.91
2023-04-18T05:14:35.754Z,98019.25
2023-04-18T05:15:40.196Z,98016.72
2023-04-18T05:16:43.094Z,98022.13
2023-04-18T05:17:46.044Z,98018.16
2023-04-18T05:18:48.857Z,98020.50
2023-04-18T05:19:52.655Z,98014.78
2023-04-18T05:20:56.062Z,98020.19
2023-04-18T05:21:58.713Z,98026.31
2023-04-18T05:23:01.354Z,98032.50
2023-04-18T05:24:03.994Z,98027.19
2023-04-18T05:25:07.148Z,98028.34
2023-04-18T05:26:09.829Z,98023.22
2023-04-18T05:27:15.880Z,98028.56
2023-04-18T05:28:19.887Z,98032.81
2023-04-18T05:29:22.536Z,98030.69
2023-04-18T05:30:25.334Z,98025.16
2023-04-18T05:31:30.306Z,98034.97
2023-04-18T05:32:33.554Z,98031.66
2023-04-18T05:33:36.312Z,98037.09
2023-04-18T05:34:39.566Z,98024.28
2023-04-18T05:35:42.293Z,98034.19
2023-04-18T05:36:45.546Z,98033.31
2023-04-18T05:37:48.346Z,98032.44
2023-04-18T05:38:51.808Z,98034.84
2023-04-18T05:39:54.447Z,98036.59
2023-04-18T05:41:00.399Z,98040.56
2023-04-18T05:42:03.756Z,98035.63
2023-04-18T05:43:06.452Z,98037.84
2023-04-18T05:44:09.329Z,98042.31
2023-04-18T05:45:12.150Z,98042.03
2023-04-18T05:46:14.942Z,98044.06
2023-04-18T05:47:17.748Z,98038.66
2023-04-18T05:48:21.563Z,98036.13
2023-04-18T05:49:24.208Z,98049.63
2023-04-18T05:50:27.186Z,98045.06
2023-04-18T05:51:29.956Z,98045.56
2023-04-18T05:52:32.823Z,98044.06
2023-04-18T05:53:35.355Z,98040.47
2023-04-18T05:54:38.041Z,98050.16
2023-04-18T05:55:41.237Z,98049.75
2023-04-18T05:56:44.421Z,98053.91
2023-04-18T05:57:47.299Z,98044.81
2023-04-18T05:58:51.510Z,98047.03
2023-04-18T05:59:54.359Z,98041.41
2023-04-18T06:00:57.289Z,98046.91
2023-04-18T06:02:00.041Z,98048.81
2023-04-18T06:03:03.247Z,98052.81
2023-04-18T06:04:06.536Z,98049.47
2023-04-18T06:05:09.781Z,98051.22
2023-04-18T06:06:13.507Z,98056.94
2023-04-18T06:07:16.171Z,98051.81
2023-04-18T06:08:19.059Z,98052.19
2023-04-18T06:09:21.712Z,98063.19
2023-04-18T06:10:24.692Z,98061.72
2023-04-18T06:11:27.707Z,98060.03
2023-04-18T06:12:30.856Z,98062.03
2023-04-18T06:13:33.588Z,98064.31
2023-04-18T06:14:36.185Z,98065.22
2023-04-18T06:15:38.887Z,98062.91
2023-04-18T06:16:41.686Z,98063.44
2023-04-18T06:17:44.905Z,98070.72
2023-04-18T06:18:47.987Z,98063.91
2023-04-18T06:19:50.842Z,98064.56
2023-04-18T06:20:53.514Z,98069.03
2023-04-18T06:21:56.015Z,98064.13
2023-04-18T06:22:58.626Z,98064.53
2023-04-18T06:24:01.759Z,98059.28
2023-04-18T06:25:04.646Z,98071.03
2023-04-18T06:26:07.577Z,98062.94
2023-04-18T06:27:17.701Z,98072.56
2023-04-18T06:28:27.247Z,98069.38
2023-04-18T06:29:33.603Z,98067.50
2023-04-18T06:30:36.775Z,98067.91
2023-04-18T06:31:39.701Z,98062.34
2023-04-18T06:32:43.801Z,98061.09
2023-04-18T06:33:46.463Z,98070.25
2023-04-18T06:34:49.071Z,98065.87
2023-04-18T06:35:52.058Z,98067.00
2023-04-18T06:36:54.666Z,98064.25
2023-04-18T06:37:57.414Z,98071.06
2023-04-18T06:39:00.414Z,98061.09
2023-04-18T06:40:03.107Z,98066.94
2023-04-18T06:41:05.984Z,98060.13
2023-04-18T06:42:08.702Z,98062.91
2023-04-18T06:43:11.454Z,98055.50
2023-04-18T06:44:14.041Z,98063.22
2023-04-18T06:45:16.688Z,98069.75
2023-04-18T06:46:19.645Z,98066.66
2023-04-18T06:47:23.174Z,98070.19
2023-04-18T06:48:26.166Z,98066.66
2023-04-18T06:49:28.911Z,98069.28
2023-04-18T06:50:32.100Z,98061.12
2023-04-18T06:51:34.946Z,98062.94
2023-04-18T06:52:40.866Z,98063.53
2023-04-18T06:53:45.892Z,98059.84
2023-04-18T06:54:48.498Z,98063.41
2023-04-18T06:55:51.286Z,98071.13
2023-04-18T06:56:54.197Z,98071.28
2023-04-18T06:57:56.955Z,98067.88
2023-04-18T06:58:59.961Z,98066.19
2023-04-18T07:00:03.874Z,98075.31
2023-04-18T07:01:06.932Z,98073.78
2023-04-18T07:02:09.835Z,98076.56
2023-04-18T07:03:13.691Z,98068.22
2023-04-18T07:04:16.763Z,98067.16
2023-04-18T07:05:19.653Z,98075.97
2023-04-18T07:06:22.371Z,98073.34
2023-04-18T07:07:26.671Z,98071.97
2023-04-18T07:08:29.366Z,98070.25
2023-04-18T07:09:32.661Z,98078.13
2023-04-18T07:10:35.501Z,98078.44
2023-04-18T07:11:40.704Z,98071.16
2023-04-18T07:12:43.623Z,98079.63
2023-04-18T07:13:48.568Z,98076.38
2023-04-18T07:14:52.006Z,98075.88
2023-04-18T07:15:54.807Z,98067.91
2023-04-18T07:16:58.090Z,98070.88
2023-04-18T07:18:01.016Z,98078.88
2023-04-18T07:19:04.314Z,98082.88
2023-04-18T07:20:08.040Z,98080.91
2023-04-18T07:21:11.099Z,98082.44
2023-04-18T07:22:14.103Z,98081.72
2023-04-18T07:23:17.012Z,98084.56
2023-04-18T07:24:19.806Z,98081.06
2023-04-18T07:25:22.535Z,98081.56
2023-04-18T07:26:27.015Z,98081.63
2023-04-18T07:27:29.930Z,98093.97
2023-04-18T07:28:33.189Z,98084.19
2023-04-18T07:29:36.462Z,98073.00
2023-04-18T07:30:39.256Z,98085.47
2023-04-18T07:31:41.984Z,98089.34
2023-04-18T07:32:44.953Z,98086.00
2023-04-18T07:33:47.670Z,98085.31
2023-04-18T07:34:52.157Z,98092.31
2023-04-18T07:35:54.889Z,98090.84
2023-04-18T07:36:57.968Z,98085.31
2023-04-18T07:38:01.401Z,98094.94
2023-04-18T07:39:04.061Z,98093.25
2023-04-18T07:40:08.434Z,98095.69
2023-04-18T07:41:11.410Z,98092.78
2023-04-18T07:43:17.005Z,98098.41
2023-04-18T07:44:21.735Z,98095.44
2023-04-18T07:45:24.409Z,98099.69
2023-04-18T07:46:27.330Z,98100.22
2023-04-18T07:47:31.150Z,98101.38
2023-04-18T07:48:35.051Z,98105.88
2023-04-18T07:49:38.536Z,98104.34
2023-04-18T07:50:41.727Z,98100.28
2023-04-18T07:51:44.508Z,98102.09
2023-04-18T07:52:50.679Z,98108.78
2023-04-18T07:53:53.352Z,98104.66
2023-04-18T07:54:55.968Z,98112.56
2023-04-18T07:55:58.754Z,98101.09
2023-04-18T07:57:02.045Z,98108.25
2023-04-18T07:58:04.808Z,98112.84
2023-04-18T07:59:07.473Z,98114.75
2023-04-18T08:00:12.563Z,98107.31
2023-04-18T08:01:18.441Z,98102.50
2023-04-18T08:02:21.823Z,98105.31
2023-04-18T08:03:24.890Z,98102.72
2023-04-18T08:04:29.942Z,98114.56
2023-04-18T08:05:33.624Z,98111.09
2023-04-18T08:06:36.415Z,98114.69
2023-04-18T08:07:39.098Z,98111.06
2023-04-18T08:08:42.198Z,98112.19
2023-04-18T08:09:46.057Z,98113.47
2023-04-18T08:10:48.844Z,98112.81
2023-04-18T08:11:51.704Z,98113.88
2023-04-18T08:12:54.342Z,98110.19
2023-04-18T08:13:56.985Z,98110.16
2023-04-18T08:14:59.575Z,98122.78
2023-04-18T08:16:03.119Z,98121.38
2023-04-18T08:17:05.775Z,98125.69
2023-04-18T08:18:09.641Z,98117.19
2023-04-18T08:19:12.554Z,98124.66
2023-04-18T08:20:15.750Z,98126.84
2023-04-18T08:21:19.542Z,98123.97
2023-04-18T08:22:22.299Z,98132.34
2023-04-18T08:23:25.140Z,98120.78
2023-04-18T08:24:28.334Z,98131.66
2023-04-18T08:25:31.874Z,98129.28
2023-04-18T08:26:34.538Z,98125.63
2023-04-18T08:27:37.231Z,98128.41
2023-04-18T08:28:39.918Z,98128.09
2023-04-18T08:29:42.570Z,98130.53
2023-04-18T08:30:48.951Z,98127.03
2023-04-18T08:31:51.768Z,98130.81
2023-04-18T08:32:54.401Z,98126.31
2023-04-18T08:33:57.002Z,98135.50
2023-04-18T08:34:59.697Z,98128.06
2023-04-18T08:36:02.367Z,98132.75
2023-04-18T08:37:05.174Z,98130.66
2023-04-18T08:38:07.908Z,98135.84
2023-04-18T08:39:10.763Z,98132.00
2023-04-18T08:40:14.008Z,98128.88
2023-04-18T08:41:23.544Z,98135.72
2023-04-18T08:42:27.309Z,98136.28
2023-04-18T08:43:31.567Z,98138.06
2023-04-18T08:44:34.551Z,98136.84
2023-04-18T08:45:37.237Z,98130.22
2023-04-18T08:46:40.185Z,98134.63
2023-04-18T08:47:43.240Z,98135.50
2023-04-18T08:48:49.555Z,98143.00
2023-04-18T08:49:53.785Z,98136.72
2023-04-18T08:51:00.284Z,98137.06
2023-04-18T08:52:05.184Z,98141.66
2023-04-18T08:53:08.007Z,98136.72
2023-04-18T08:54:10.816Z,98134.75
2023-04-18T08:55:13.733Z,98137.06
2023-04-18T08:56:16.899Z,98138.69
2023-04-18T08:57:30.523Z,98134.97
2023-04-18T08:58:34.413Z,98138.50
2023-04-18T08:59:37.049Z,98137.50
2023-04-18T09:00:39.776Z,98133.97
2023-04-18T09:01:56.683Z,98138.59
2023-04-18T09:02:59.822Z,98129.44
2023-04-18T09:04:02.572Z,98134.41
2023-04-18T09:05:16.660Z,98140.13
2023-04-18T09:06:20.376Z,98143.09
2023-04-18T09:07:31.648Z,98143.72
2023-04-18T09:08:35.645Z,98146.28
2023-04-18T09:09:52.081Z,98145.66
2023-04-18T09:10:54.847Z,98141.97
2023-04-18T09:12:08.269Z,98139.19
2023-04-18T09:13:11.421Z,98143.38
2023-04-18T09:14:26.205Z,98138.25
2023-04-18T09:15:30.044Z,98144.09
2023-04-18T09:16:47.386Z,98141.75
2023-04-18T09:17:54.259Z,98139.84
2023-04-18T09:19:14.007Z,98137.91
2023-04-18T09:20:30.980Z,98134.88
2023-04-18T09:21:33.670Z,98139.06
2023-04-18T09:22:53.146Z,98145.84
2023-04-18T09:24:17.734Z,98142.09
2023-04-18T09:25:34.645Z,98145.12
2023-04-18T09:26:37.849Z,98139.91
2023-04-18T09:27:40.577Z,98143.50
2023-04-18T09:28:43.430Z,98139.75
2023-04-18T09:29:49.579Z,98140.38
2023-04-18T09:30:52.879Z,98146.50
2023-04-18T09:32:02.321Z,98149.94
2023-04-18T09:33:09.717Z,98154.69
2023-04-18T09:34:25.188Z,98152.16
2023-04-18T09:35:28.427Z,98147.63
2023-04-18T09:36:32.656Z,98148.41
2023-04-18T09:37:35.691Z,98158.56
2023-04-18T09:38:42.027Z,98149.16
2023-04-18T09:39:45.203Z,98145.94
2023-04-18T09:41:08.344Z,98156.00
2023-04-18T09:42:14.366Z,98149.81
2023-04-18T09:43:21.630Z,98151.03
2023-04-18T09:44:24.856Z,98157.66
2023-04-18T09:45:27.753Z,98145.69
2023-04-18T09:46:30.845Z,98139.97
2023-04-18T09:47:36.681Z,98142.03
2023-04-18T09:48:40.593Z,98146.19
2023-04-18T09:49:43.243Z,98142.97
2023-04-18T09:50:47.255Z,98146.03
2023-04-18T09:51:54.364Z,98155.87
2023-04-18T09:52:58.626Z,98143.63
2023-04-18T09:54:04.631Z,98149.97
2023-04-18T09:55:09.798Z,98141.66
2023-04-18T09:56:28.096Z,98139.03
2023-04-18T09:57:32.873Z,98143.03
2023-04-18T09:58:41.333Z,98142.44
2023-04-18T10:00:02.318Z,98140.47
2023-04-18T10:01:05.518Z,98147.38
2023-04-18T10:02:19.067Z,98143.22
2023-04-18T10:03:28.907Z,98149.63
2023-04-18T10:04:33.010Z,98142.31
2023-04-18T10:05:39.049Z,98140.34
2023-04-18T10:06:45.087Z,98139.16
2023-04-18T10:07:49.809Z,98141.63
2023-04-18T10:08:53.925Z,98142.69
2023-04-18T10:09:56.683Z,98141.00
2023-04-18T10:10:59.551Z,98138.75
2023-04-18T10:12:02.915Z,98146.25
2023-04-18T10:13:08.673Z,98144.81
2023-04-18T10:14:14.440Z,98149.63
2023-04-18T10:15:18.282Z,98137.97
2023-04-18T10:16:21.188Z,98143.09
2023-04-18T10:17:23.901Z,98143.00
2023-04-18T10:18:26.915Z,98130.38
2023-04-18T10:19:30.422Z,98144.06
2023-04-18T10:20:35.399Z,98144.47
2023-04-18T10:21:38.515Z,98142.00
2023-04-18T10:22:41.214Z,98142.09
2023-04-18T10:23:43.886Z,98140.81
2023-04-18T10:24:54.411Z,98141.44
2023-04-18T10:25:57.304Z,98140.38
2023-04-18T10:26:59.885Z,98142.03
2023-04-18T10:28:03.249Z,98142.19
2023-04-18T10:29:05.870Z,98137.62
2023-04-18T10:30:09.331Z,98137.81
2023-04-18T10:31:12.255Z,98143.78
2023-04-18T10:32:15.200Z,98143.13
2023-04-18T10:33:30.351Z,98143.13
2023-04-18T10:34:37.497Z,98139.28
2023-04-18T10:36:13.899Z,98144.84
2023-04-18T10:37:18.115Z,98133.13
2023-04-18T10:38:23.766Z,98137.81
2023-04-18T10:39:27.064Z,98139.88
2023-04-18T10:40:34.475Z,98144.69
2023-04-18T10:41:50.604Z,98138.41
2023-04-18T10:42:54.137Z,98141.72
2023-04-18T10:44:11.904Z,98148.34
2023-04-18T10:45:24.991Z,98140.38
2023-04-18T10:46:32.442Z,98146.88
2023-04-18T10:47:36.026Z,98144.38
2023-04-18T10:48:39.403Z,98135.50
2023-04-18T10:49:54.354Z,98138.97
2023-04-18T10:51:21.022Z,98139.19
2023-04-18T10:52:23.854Z,98127.13
2023-04-18T10:53:26.382Z,98131.19
2023-04-18T10:54:39.313Z,98134.72
2023-04-18T10:55:51.842Z,98131.06
2023-04-18T10:56:59.990Z,98132.53
2023-04-18T10:58:03.628Z,98123.12
2023-04-18T10:59:09.412Z,98124.72
2023-04-18T11:00:18.094Z,98122.84
2023-04-18T11:01:27.486Z,98128.69
2023-04-18T11:02:33.621Z,98128.34
2023-04-18T11:03:37.354Z,98125.34
2023-04-18T11:04:41.405Z,98122.78
2023-04-18T11:05:44.603Z,98121.66
2023-04-18T11:06:57.429Z,98116.53
2023-04-18T11:08:00.113Z,98123.97
2023-04-18T11:09:11.083Z,98121.41
2023-04-18T11:10:13.660Z,98122.88
2023-04-18T11:11:16.532Z,98124.41
2023-04-18T11:12:19.266Z,98132.69
2023-04-18T11:13:22.281Z,98123.28
2023-04-18T11:14:24.969Z,98119.50
2023-04-18T11:15:29.702Z,98125.81
2023-04-18T11:16:34.639Z,98125.59
2023-04-18T11:17:40.513Z,98123.88
2023-04-18T11:18:43.304Z,98123.41
2023-04-18T11:19:46.407Z,98127.25
2023-04-18T11:20:52.519Z,98133.78
2023-04-18T11:22:01.168Z,98131.47
2023-04-18T11:23:03.884Z,98126.59
2023-04-18T11:24:06.649Z,98132.16
2023-04-18T11:25:09.628Z,98129.84
2023-04-18T11:26:14.493Z,98136.78
2023-04-18T11:27:18.513Z,98142.25
2023-04-18T11:28:22.215Z,98141.94
2023-04-18T11:29:24.955Z,98140.28
2023-04-18T11:30:28.906Z,98145.78
2023-04-18T11:31:31.756Z,98147.13
2023-04-18T11:32:35.753Z,98142.34
2023-04-18T11:33:38.527Z,98139.16
2023-04-18T11:34:41.736Z,98143.34
2023-04-18T11:35:46.246Z,98141.16
2023-04-18T11:36:51.152Z,98143.72
2023-04-18T11:37:54.908Z,98139.75
2023-04-18T11:38:57.561Z,98141.03
2023-04-18T11:40:00.323Z,98129.69
2023-04-18T11:41:03.271Z,98134.03
2023-04-18T11:42:06.117Z,98132.31
2023-04-18T11:43:08.859Z,98133.06
2023-04-18T11:44:12.046Z,98135.19
2023-04-18T11:45:16.003Z,98133.22
2023-04-18T11:46:18.771Z,98133.34
2023-04-18T11:47:27.756Z,98125.81
2023-04-18T11:48:41.465Z,98128.09
2023-04-18T11:49:44.334Z,98130.06
2023-04-18T11:50:46.973Z,98131.72
2023-04-18T11:51:49.718Z,98134.34
2023-04-18T11:52:53.960Z,98128.84
2023-04-18T11:53:57.010Z,98134.19
2023-04-18T11:55:18.654Z,98127.97
2023-04-18T11:56:21.474Z,98133.72
2023-04-18T11:57:27.698Z,98128.53
2023-04-18T11:58:35.048Z,98133.75
2023-04-18T11:59:37.816Z,98131.13
2023-04-18T12:00:43.940Z,98134.31
2023-04-18T12:01:46.757Z,98130.41
2023-04-18T12:02:51.349Z,98136.28
2023-04-18T12:04:04.880Z,98128.69
2023-04-18T12:05:08.567Z,98130.44
2023-04-18T12:06:12.119Z,98132.88
2023-04-18T12:07:29.388Z,98126.56
2023-04-18T12:08:32.827Z,98127.34
2023-04-18T12:09:39.163Z,98126.13
2023-04-18T12:10:50.836Z,98129.53
2023-04-18T12:12:03.996Z,98120.38
2023-04-18T12:13:08.892Z,98123.25
2023-04-18T12:14:21.959Z,98128.91
2023-04-18T12:15:29.458Z,98123.31
2023-04-18T12:16:33.642Z,98129.31
2023-04-18T12:17:38.395Z,98120.75
2023-04-18T12:18:42.075Z,98130.44
2023-04-18T12:19:49.667Z,98119.22
2023-04-18T12:20:54.590Z,98137.84
2023-04-18T12:22:05.404Z,98129.91
2023-04-18T12:23:09.001Z,98134.84
2023-04-18T12:24:18.452Z,98132.00
2023-04-18T12:25:26.630Z,98131.09
2023-04-18T12:26:30.252Z,98132.28
2023-04-18T12:27:53.582Z,98123.06
2023-04-18T12:28:56.344Z,98131.41
2023-04-18T12:29:59.326Z,98127.34
2023-04-18T12:31:02.961Z,98126.34
2023-04-18T12:32:06.317Z,98126.53
2023-04-18T12:33:11.744Z,98132.63
2023-04-18T12:34:14.707Z,98125.13
2023-04-18T12:35:19.539Z,98132.72